sensor_id;sensor_type;location;lat;lon;timestamp;temperature;humidity
46754;DHT22;32500;50.620;3.400;2024-02-16T00:00:09;18.30;73.10
46754;DHT22;32500;50.620;3.400;2024-02-16T00:02:39;18.30;73.20
46754;DHT22;32500;50.620;3.400;2024-02-16T00:05:07;18.30;73.20
46754;DHT22;32500;50.620;3.400;2024-02-16T00:07:33;18.30;73.20
46754;DHT22;32500;50.620;3.400;2024-02-16T00:09:59;18.30;73.20
46754;DHT22;32500;50.620;3.400;2024-02-16T00:12:25;18.30;73.30
46754;DHT22;32500;50.620;3.400;2024-02-16T00:14:51;18.30;73.30
46754;DHT22;32500;50.620;3.400;2024-02-16T00:17:17;18.20;73.30
46754;DHT22;32500;50.620;3.400;2024-02-16T00:19:42;18.20;73.40
46754;DHT22;32500;50.620;3.400;2024-02-16T00:22:08;18.20;73.50
46754;DHT22;32500;50.620;3.400;2024-02-16T00:24:34;18.20;73.60
46754;DHT22;32500;50.620;3.400;2024-02-16T00:27:02;18.20;73.50
46754;DHT22;32500;50.620;3.400;2024-02-16T00:29:31;18.20;73.60
46754;DHT22;32500;50.620;3.400;2024-02-16T00:31:57;18.20;73.70
46754;DHT22;32500;50.620;3.400;2024-02-16T00:34:25;18.20;73.70
46754;DHT22;32500;50.620;3.400;2024-02-16T00:36:51;18.10;73.60
46754;DHT22;32500;50.620;3.400;2024-02-16T00:39:17;18.10;73.50
46754;DHT22;32500;50.620;3.400;2024-02-16T00:41:43;18.10;73.50
46754;DHT22;32500;50.620;3.400;2024-02-16T00:44:09;18.10;73.60
46754;DHT22;32500;50.620;3.400;2024-02-16T00:46:38;18.10;73.70
46754;DHT22;32500;50.620;3.400;2024-02-16T00:49:04;18.10;73.60
46754;DHT22;32500;50.620;3.400;2024-02-16T00:51:29;18.10;74.30
46754;DHT22;32500;50.620;3.400;2024-02-16T00:53:55;18.10;74.30
46754;DHT22;32500;50.620;3.400;2024-02-16T00:56:21;18.10;73.80
46754;DHT22;32500;50.620;3.400;2024-02-16T00:58:47;18.10;73.70
46754;DHT22;32500;50.620;3.400;2024-02-16T01:01:12;18.10;73.90
46754;DHT22;32500;50.620;3.400;2024-02-16T01:03:39;18.00;73.70
46754;DHT22;32500;50.620;3.400;2024-02-16T01:06:06;18.00;73.70
46754;DHT22;32500;50.620;3.400;2024-02-16T01:08:32;18.00;73.90
46754;DHT22;32500;50.620;3.400;2024-02-16T01:10:58;18.00;73.90
46754;DHT22;32500;50.620;3.400;2024-02-16T01:13:24;18.00;73.90
46754;DHT22;32500;50.620;3.400;2024-02-16T01:15:49;18.00;73.90
46754;DHT22;32500;50.620;3.400;2024-02-16T01:18:15;18.00;73.90
46754;DHT22;32500;50.620;3.400;2024-02-16T01:20:41;18.00;73.80
46754;DHT22;32500;50.620;3.400;2024-02-16T01:23:06;18.00;73.90
46754;DHT22;32500;50.620;3.400;2024-02-16T01:25:32;18.00;73.90
46754;DHT22;32500;50.620;3.400;2024-02-16T01:27:58;18.00;73.90
46754;DHT22;32500;50.620;3.400;2024-02-16T01:30:24;18.00;73.80
46754;DHT22;32500;50.620;3.400;2024-02-16T01:32:50;18.00;73.80
46754;DHT22;32500;50.620;3.400;2024-02-16T01:35:16;18.00;73.60
46754;DHT22;32500;50.620;3.400;2024-02-16T01:37:42;17.90;73.70
46754;DHT22;32500;50.620;3.400;2024-02-16T01:40:11;17.90;73.80
46754;DHT22;32500;50.620;3.400;2024-02-16T01:42:43;17.90;73.80
46754;DHT22;32500;50.620;3.400;2024-02-16T01:45:09;17.90;73.80
46754;DHT22;32500;50.620;3.400;2024-02-16T01:47:36;17.90;73.70
46754;DHT22;32500;50.620;3.400;2024-02-16T01:50:03;17.90;73.70
46754;DHT22;32500;50.620;3.400;2024-02-16T01:52:30;17.90;73.70
46754;DHT22;32500;50.620;3.400;2024-02-16T01:54:57;17.90;73.80
46754;DHT22;32500;50.620;3.400;2024-02-16T01:57:23;17.90;73.70
46754;DHT22;32500;50.620;3.400;2024-02-16T01:59:49;17.90;73.70
46754;DHT22;32500;50.620;3.400;2024-02-16T02:02:15;17.90;73.70
46754;DHT22;32500;50.620;3.400;2024-02-16T02:04:41;17.90;73.70
46754;DHT22;32500;50.620;3.400;2024-02-16T02:07:12;17.80;73.60
46754;DHT22;32500;50.620;3.400;2024-02-16T02:09:38;17.80;73.80
46754;DHT22;32500;50.620;3.400;2024-02-16T02:12:03;17.80;73.70
46754;DHT22;32500;50.620;3.400;2024-02-16T02:14:29;17.90;73.60
46754;DHT22;32500;50.620;3.400;2024-02-16T02:16:55;17.80;73.60
46754;DHT22;32500;50.620;3.400;2024-02-16T02:19:21;17.80;73.70
46754;DHT22;32500;50.620;3.400;2024-02-16T02:21:47;17.80;73.60
46754;DHT22;32500;50.620;3.400;2024-02-16T02:24:12;17.90;73.60
46754;DHT22;32500;50.620;3.400;2024-02-16T02:26:39;17.80;73.50
46754;DHT22;32500;50.620;3.400;2024-02-16T02:29:05;17.80;73.50
46754;DHT22;32500;50.620;3.400;2024-02-16T02:31:30;17.80;73.50
46754;DHT22;32500;50.620;3.400;2024-02-16T02:33:56;17.80;73.30
46754;DHT22;32500;50.620;3.400;2024-02-16T02:36:22;17.80;73.40
46754;DHT22;32500;50.620;3.400;2024-02-16T02:38:47;17.80;73.30
46754;DHT22;32500;50.620;3.400;2024-02-16T02:41:13;17.80;73.30
46754;DHT22;32500;50.620;3.400;2024-02-16T02:43:41;17.80;73.40
46754;DHT22;32500;50.620;3.400;2024-02-16T02:46:07;17.80;73.30
46754;DHT22;32500;50.620;3.400;2024-02-16T02:48:33;17.80;73.30
46754;DHT22;32500;50.620;3.400;2024-02-16T02:50:58;17.80;73.40
46754;DHT22;32500;50.620;3.400;2024-02-16T02:53:28;17.80;73.30
46754;DHT22;32500;50.620;3.400;2024-02-16T02:55:55;17.80;73.30
46754;DHT22;32500;50.620;3.400;2024-02-16T02:58:20;17.80;73.30
46754;DHT22;32500;50.620;3.400;2024-02-16T03:00:46;17.80;73.30
46754;DHT22;32500;50.620;3.400;2024-02-16T03:03:12;17.80;73.30
46754;DHT22;32500;50.620;3.400;2024-02-16T03:05:43;17.80;73.20
46754;DHT22;32500;50.620;3.400;2024-02-16T03:08:10;17.80;73.20
46754;DHT22;32500;50.620;3.400;2024-02-16T03:10:36;17.80;73.30
46754;DHT22;32500;50.620;3.400;2024-02-16T03:13:03;17.80;73.10
46754;DHT22;32500;50.620;3.400;2024-02-16T03:15:29;17.80;73.20
46754;DHT22;32500;50.620;3.400;2024-02-16T03:17:58;17.80;73.10
46754;DHT22;32500;50.620;3.400;2024-02-16T03:20:23;17.80;73.00
46754;DHT22;32500;50.620;3.400;2024-02-16T03:22:49;17.70;73.00
46754;DHT22;32500;50.620;3.400;2024-02-16T03:25:15;17.70;73.10
46754;DHT22;32500;50.620;3.400;2024-02-16T03:27:42;17.70;73.00
46754;DHT22;32500;50.620;3.400;2024-02-16T03:30:08;17.70;73.10
46754;DHT22;32500;50.620;3.400;2024-02-16T03:32:34;17.70;73.00
46754;DHT22;32500;50.620;3.400;2024-02-16T03:35:00;17.70;73.00
46754;DHT22;32500;50.620;3.400;2024-02-16T03:37:26;17.80;73.00
46754;DHT22;32500;50.620;3.400;2024-02-16T03:39:51;17.70;72.80
46754;DHT22;32500;50.620;3.400;2024-02-16T03:42:19;17.80;72.90
46754;DHT22;32500;50.620;3.400;2024-02-16T03:44:45;17.70;72.80
46754;DHT22;32500;50.620;3.400;2024-02-16T03:47:11;17.70;72.80
46754;DHT22;32500;50.620;3.400;2024-02-16T03:49:37;17.70;72.80
46754;DHT22;32500;50.620;3.400;2024-02-16T03:52:03;17.70;72.80
46754;DHT22;32500;50.620;3.400;2024-02-16T03:54:29;17.70;72.80
46754;DHT22;32500;50.620;3.400;2024-02-16T03:56:55;17.70;72.80
46754;DHT22;32500;50.620;3.400;2024-02-16T03:59:21;17.70;72.70
46754;DHT22;32500;50.620;3.400;2024-02-16T04:01:47;17.70;72.70
46754;DHT22;32500;50.620;3.400;2024-02-16T04:04:12;17.70;72.70
46754;DHT22;32500;50.620;3.400;2024-02-16T04:06:38;17.70;72.80
46754;DHT22;32500;50.620;3.400;2024-02-16T04:09:05;17.70;72.70
46754;DHT22;32500;50.620;3.400;2024-02-16T04:11:34;17.70;72.90
46754;DHT22;32500;50.620;3.400;2024-02-16T04:14:00;17.70;72.80
46754;DHT22;32500;50.620;3.400;2024-02-16T04:16:26;17.70;72.80
46754;DHT22;32500;50.620;3.400;2024-02-16T04:18:52;17.70;72.70
46754;DHT22;32500;50.620;3.400;2024-02-16T04:21:18;17.70;72.60
46754;DHT22;32500;50.620;3.400;2024-02-16T04:23:44;17.70;72.70
46754;DHT22;32500;50.620;3.400;2024-02-16T04:26:09;17.70;72.70
46754;DHT22;32500;50.620;3.400;2024-02-16T04:28:35;17.70;72.70
46754;DHT22;32500;50.620;3.400;2024-02-16T04:31:01;17.70;72.70
46754;DHT22;32500;50.620;3.400;2024-02-16T04:33:27;17.70;72.70
46754;DHT22;32500;50.620;3.400;2024-02-16T04:35:53;17.70;72.70
46754;DHT22;32500;50.620;3.400;2024-02-16T04:38:18;17.70;72.70
46754;DHT22;32500;50.620;3.400;2024-02-16T04:40:45;17.60;72.60
46754;DHT22;32500;50.620;3.400;2024-02-16T04:43:11;17.70;72.70
46754;DHT22;32500;50.620;3.400;2024-02-16T04:45:37;17.60;72.60
46754;DHT22;32500;50.620;3.400;2024-02-16T04:48:04;17.60;72.60
46754;DHT22;32500;50.620;3.400;2024-02-16T04:50:32;17.60;72.60
46754;DHT22;32500;50.620;3.400;2024-02-16T04:52:57;17.70;72.60
46754;DHT22;32500;50.620;3.400;2024-02-16T04:55:23;17.60;72.60
46754;DHT22;32500;50.620;3.400;2024-02-16T04:57:49;17.60;72.60
46754;DHT22;32500;50.620;3.400;2024-02-16T05:00:15;17.60;72.50
46754;DHT22;32500;50.620;3.400;2024-02-16T05:02:40;17.60;72.60
46754;DHT22;32500;50.620;3.400;2024-02-16T05:05:06;17.60;72.60
46754;DHT22;32500;50.620;3.400;2024-02-16T05:07:33;17.60;72.60
46754;DHT22;32500;50.620;3.400;2024-02-16T05:09:58;17.60;72.60
46754;DHT22;32500;50.620;3.400;2024-02-16T05:12:25;17.60;72.60
46754;DHT22;32500;50.620;3.400;2024-02-16T05:14:51;17.60;72.60
46754;DHT22;32500;50.620;3.400;2024-02-16T05:17:18;17.60;72.60
46754;DHT22;32500;50.620;3.400;2024-02-16T05:19:44;17.60;72.60
46754;DHT22;32500;50.620;3.400;2024-02-16T05:22:10;17.60;72.70
46754;DHT22;32500;50.620;3.400;2024-02-16T05:24:37;17.60;72.60
46754;DHT22;32500;50.620;3.400;2024-02-16T05:27:03;17.60;72.60
46754;DHT22;32500;50.620;3.400;2024-02-16T05:29:28;17.60;72.60
46754;DHT22;32500;50.620;3.400;2024-02-16T05:31:54;17.60;72.70
46754;DHT22;32500;50.620;3.400;2024-02-16T05:34:19;17.60;72.70
46754;DHT22;32500;50.620;3.400;2024-02-16T05:36:45;17.50;72.60
46754;DHT22;32500;50.620;3.400;2024-02-16T05:39:11;17.60;72.60
46754;DHT22;32500;50.620;3.400;2024-02-16T05:41:52;17.50;72.60
46754;DHT22;32500;50.620;3.400;2024-02-16T05:44:17;17.60;72.60
46754;DHT22;32500;50.620;3.400;2024-02-16T05:46:44;17.50;72.70
46754;DHT22;32500;50.620;3.400;2024-02-16T05:49:10;17.50;72.60
46754;DHT22;32500;50.620;3.400;2024-02-16T05:51:37;17.50;72.60
46754;DHT22;32500;50.620;3.400;2024-02-16T05:54:04;17.50;72.70
46754;DHT22;32500;50.620;3.400;2024-02-16T05:56:30;17.50;72.60
46754;DHT22;32500;50.620;3.400;2024-02-16T05:59:02;17.50;72.60
46754;DHT22;32500;50.620;3.400;2024-02-16T06:01:29;17.50;72.60
46754;DHT22;32500;50.620;3.400;2024-02-16T06:03:55;17.50;72.70
46754;DHT22;32500;50.620;3.400;2024-02-16T06:06:20;17.40;72.80
46754;DHT22;32500;50.620;3.400;2024-02-16T06:08:46;17.40;73.00
46754;DHT22;32500;50.620;3.400;2024-02-16T06:11:12;17.40;73.00
46754;DHT22;32500;50.620;3.400;2024-02-16T06:13:37;17.40;73.00
46754;DHT22;32500;50.620;3.400;2024-02-16T06:16:06;17.40;73.10
46754;DHT22;32500;50.620;3.400;2024-02-16T06:18:35;17.40;73.20
46754;DHT22;32500;50.620;3.400;2024-02-16T06:21:01;17.40;73.20
46754;DHT22;32500;50.620;3.400;2024-02-16T06:23:27;17.50;73.10
46754;DHT22;32500;50.620;3.400;2024-02-16T06:25:53;17.50;73.10
46754;DHT22;32500;50.620;3.400;2024-02-16T06:28:18;17.40;73.00
46754;DHT22;32500;50.620;3.400;2024-02-16T06:30:44;17.50;73.00
46754;DHT22;32500;50.620;3.400;2024-02-16T06:33:10;17.50;73.00
46754;DHT22;32500;50.620;3.400;2024-02-16T06:35:35;17.40;73.00
46754;DHT22;32500;50.620;3.400;2024-02-16T06:38:01;17.40;73.30
46754;DHT22;32500;50.620;3.400;2024-02-16T06:40:26;17.40;73.30
46754;DHT22;32500;50.620;3.400;2024-02-16T06:42:53;17.40;73.20
46754;DHT22;32500;50.620;3.400;2024-02-16T06:45:18;17.40;73.90
46754;DHT22;32500;50.620;3.400;2024-02-16T06:47:45;17.40;73.50
46754;DHT22;32500;50.620;3.400;2024-02-16T06:50:11;17.40;73.60
46754;DHT22;32500;50.620;3.400;2024-02-16T06:52:36;17.50;73.60
46754;DHT22;32500;50.620;3.400;2024-02-16T06:55:02;17.60;73.40
46754;DHT22;32500;50.620;3.400;2024-02-16T06:57:28;17.60;73.50
46754;DHT22;32500;50.620;3.400;2024-02-16T06:59:54;17.70;73.20
46754;DHT22;32500;50.620;3.400;2024-02-16T07:02:22;17.70;73.00
46754;DHT22;32500;50.620;3.400;2024-02-16T07:04:48;17.70;73.90
46754;DHT22;32500;50.620;3.400;2024-02-16T07:07:13;17.70;73.00
46754;DHT22;32500;50.620;3.400;2024-02-16T07:09:39;17.80;73.00
46754;DHT22;32500;50.620;3.400;2024-02-16T07:12:06;17.80;72.90
46754;DHT22;32500;50.620;3.400;2024-02-16T07:14:32;17.80;73.00
46754;DHT22;32500;50.620;3.400;2024-02-16T07:16:58;17.80;72.90
46754;DHT22;32500;50.620;3.400;2024-02-16T07:19:23;17.80;73.00
46754;DHT22;32500;50.620;3.400;2024-02-16T07:21:50;17.80;73.10
46754;DHT22;32500;50.620;3.400;2024-02-16T07:24:16;17.80;73.40
46754;DHT22;32500;50.620;3.400;2024-02-16T07:26:41;17.90;73.70
46754;DHT22;32500;50.620;3.400;2024-02-16T07:29:07;17.90;74.00
46754;DHT22;32500;50.620;3.400;2024-02-16T07:31:34;17.90;75.10
46754;DHT22;32500;50.620;3.400;2024-02-16T07:34:00;17.90;74.50
46754;DHT22;32500;50.620;3.400;2024-02-16T07:36:26;17.90;74.70
46754;DHT22;32500;50.620;3.400;2024-02-16T07:38:53;17.90;74.90
46754;DHT22;32500;50.620;3.400;2024-02-16T07:41:18;17.90;74.90
46754;DHT22;32500;50.620;3.400;2024-02-16T07:43:44;17.90;74.60
46754;DHT22;32500;50.620;3.400;2024-02-16T07:46:09;17.90;74.80
46754;DHT22;32500;50.620;3.400;2024-02-16T07:48:35;17.90;74.70
46754;DHT22;32500;50.620;3.400;2024-02-16T07:51:01;17.90;74.70
46754;DHT22;32500;50.620;3.400;2024-02-16T07:53:29;17.90;74.60
46754;DHT22;32500;50.620;3.400;2024-02-16T07:55:54;17.90;74.90
46754;DHT22;32500;50.620;3.400;2024-02-16T07:58:20;17.90;75.10
46754;DHT22;32500;50.620;3.400;2024-02-16T08:00:46;18.00;75.50
46754;DHT22;32500;50.620;3.400;2024-02-16T08:03:11;18.00;75.40
46754;DHT22;32500;50.620;3.400;2024-02-16T08:05:37;18.00;75.30
46754;DHT22;32500;50.620;3.400;2024-02-16T08:08:03;18.00;75.40
46754;DHT22;32500;50.620;3.400;2024-02-16T08:10:29;18.00;75.40
46754;DHT22;32500;50.620;3.400;2024-02-16T08:12:55;18.00;75.10
46754;DHT22;32500;50.620;3.400;2024-02-16T08:15:21;18.10;75.50
46754;DHT22;32500;50.620;3.400;2024-02-16T08:17:51;18.10;75.20
46754;DHT22;32500;50.620;3.400;2024-02-16T08:20:17;18.10;75.00
46754;DHT22;32500;50.620;3.400;2024-02-16T08:22:43;18.10;74.90
46754;DHT22;32500;50.620;3.400;2024-02-16T08:25:09;18.00;74.80
46754;DHT22;32500;50.620;3.400;2024-02-16T08:27:35;18.00;75.00
46754;DHT22;32500;50.620;3.400;2024-02-16T08:30:02;18.00;75.00
46754;DHT22;32500;50.620;3.400;2024-02-16T08:32:28;18.00;74.40
46754;DHT22;32500;50.620;3.400;2024-02-16T08:34:55;18.00;74.50
46754;DHT22;32500;50.620;3.400;2024-02-16T08:37:21;18.00;74.40
46754;DHT22;32500;50.620;3.400;2024-02-16T08:39:47;18.00;74.80
46754;DHT22;32500;50.620;3.400;2024-02-16T08:42:13;18.00;74.90
46754;DHT22;32500;50.620;3.400;2024-02-16T08:44:39;18.00;74.80
46754;DHT22;32500;50.620;3.400;2024-02-16T08:47:06;18.10;75.30
46754;DHT22;32500;50.620;3.400;2024-02-16T08:49:33;18.10;74.90
46754;DHT22;32500;50.620;3.400;2024-02-16T08:51:59;18.10;74.90
46754;DHT22;32500;50.620;3.400;2024-02-16T08:54:25;18.10;75.20
46754;DHT22;32500;50.620;3.400;2024-02-16T08:56:52;18.10;75.30
46754;DHT22;32500;50.620;3.400;2024-02-16T08:59:18;18.10;75.50
46754;DHT22;32500;50.620;3.400;2024-02-16T09:01:44;18.10;75.40
46754;DHT22;32500;50.620;3.400;2024-02-16T09:04:09;18.10;74.90
46754;DHT22;32500;50.620;3.400;2024-02-16T09:06:35;18.20;75.60
46754;DHT22;32500;50.620;3.400;2024-02-16T09:09:01;18.10;75.20
46754;DHT22;32500;50.620;3.400;2024-02-16T09:11:27;18.20;75.50
46754;DHT22;32500;50.620;3.400;2024-02-16T09:13:53;18.20;75.30
46754;DHT22;32500;50.620;3.400;2024-02-16T09:16:19;18.20;75.30
46754;DHT22;32500;50.620;3.400;2024-02-16T09:18:45;18.10;75.20
46754;DHT22;32500;50.620;3.400;2024-02-16T09:21:11;18.20;75.30
46754;DHT22;32500;50.620;3.400;2024-02-16T09:23:37;18.10;75.00
46754;DHT22;32500;50.620;3.400;2024-02-16T09:26:02;18.10;74.90
46754;DHT22;32500;50.620;3.400;2024-02-16T09:28:29;18.10;74.80
46754;DHT22;32500;50.620;3.400;2024-02-16T09:30:55;18.10;74.70
46754;DHT22;32500;50.620;3.400;2024-02-16T09:33:22;18.10;74.60
46754;DHT22;32500;50.620;3.400;2024-02-16T09:35:51;18.10;74.40
46754;DHT22;32500;50.620;3.400;2024-02-16T09:38:17;18.10;74.90
46754;DHT22;32500;50.620;3.400;2024-02-16T09:40:43;18.10;75.30
46754;DHT22;32500;50.620;3.400;2024-02-16T09:43:09;18.10;75.50
46754;DHT22;32500;50.620;3.400;2024-02-16T09:45:35;18.20;76.00
46754;DHT22;32500;50.620;3.400;2024-02-16T09:48:02;18.20;76.00
46754;DHT22;32500;50.620;3.400;2024-02-16T09:50:27;18.30;76.50
46754;DHT22;32500;50.620;3.400;2024-02-16T09:52:54;18.30;76.40
46754;DHT22;32500;50.620;3.400;2024-02-16T09:55:21;18.30;76.50
46754;DHT22;32500;50.620;3.400;2024-02-16T09:57:58;18.30;76.50
46754;DHT22;32500;50.620;3.400;2024-02-16T10:00:24;18.40;76.60
46754;DHT22;32500;50.620;3.400;2024-02-16T10:02:50;18.40;77.50
46754;DHT22;32500;50.620;3.400;2024-02-16T10:05:17;18.40;76.90
46754;DHT22;32500;50.620;3.400;2024-02-16T10:07:43;18.40;76.70
46754;DHT22;32500;50.620;3.400;2024-02-16T10:10:26;18.40;76.60
46754;DHT22;32500;50.620;3.400;2024-02-16T10:13:04;18.40;76.70
46754;DHT22;32500;50.620;3.400;2024-02-16T10:15:30;18.40;77.00
46754;DHT22;32500;50.620;3.400;2024-02-16T10:20:25;18.40;77.20
46754;DHT22;32500;50.620;3.400;2024-02-16T10:23:12;18.40;77.90
46754;DHT22;32500;50.620;3.400;2024-02-16T10:25:40;18.50;78.10
46754;DHT22;32500;50.620;3.400;2024-02-16T10:28:10;18.50;78.10
46754;DHT22;32500;50.620;3.400;2024-02-16T10:30:41;18.50;78.40
46754;DHT22;32500;50.620;3.400;2024-02-16T10:33:08;18.60;78.60
46754;DHT22;32500;50.620;3.400;2024-02-16T10:35:37;18.60;78.60
46754;DHT22;32500;50.620;3.400;2024-02-16T10:38:04;18.60;78.40
46754;DHT22;32500;50.620;3.400;2024-02-16T10:40:40;18.60;78.10
46754;DHT22;32500;50.620;3.400;2024-02-16T10:43:07;18.60;78.40
46754;DHT22;32500;50.620;3.400;2024-02-16T10:45:34;18.60;78.30
46754;DHT22;32500;50.620;3.400;2024-02-16T10:48:04;18.60;78.30
46754;DHT22;32500;50.620;3.400;2024-02-16T10:50:35;18.60;77.70
46754;DHT22;32500;50.620;3.400;2024-02-16T10:53:09;18.60;78.50
46754;DHT22;32500;50.620;3.400;2024-02-16T10:55:37;18.70;77.60
46754;DHT22;32500;50.620;3.400;2024-02-16T10:58:03;18.70;77.10
46754;DHT22;32500;50.620;3.400;2024-02-16T11:00:29;18.70;77.20
46754;DHT22;32500;50.620;3.400;2024-02-16T11:03:01;18.60;77.40
46754;DHT22;32500;50.620;3.400;2024-02-16T11:05:40;18.60;77.40
46754;DHT22;32500;50.620;3.400;2024-02-16T11:08:15;18.50;77.50
46754;DHT22;32500;50.620;3.400;2024-02-16T11:10:41;18.50;77.50
46754;DHT22;32500;50.620;3.400;2024-02-16T11:13:07;18.50;77.30
46754;DHT22;32500;50.620;3.400;2024-02-16T11:15:34;18.60;77.60
46754;DHT22;32500;50.620;3.400;2024-02-16T11:18:01;18.70;77.50
46754;DHT22;32500;50.620;3.400;2024-02-16T11:20:28;18.80;77.40
46754;DHT22;32500;50.620;3.400;2024-02-16T11:23:04;18.80;77.30
46754;DHT22;32500;50.620;3.400;2024-02-16T11:25:31;18.80;77.50
46754;DHT22;32500;50.620;3.400;2024-02-16T11:27:58;18.80;77.10
46754;DHT22;32500;50.620;3.400;2024-02-16T11:30:24;18.70;76.90
46754;DHT22;32500;50.620;3.400;2024-02-16T11:32:51;18.70;77.20
46754;DHT22;32500;50.620;3.400;2024-02-16T11:35:16;18.60;77.40
46754;DHT22;32500;50.620;3.400;2024-02-16T11:37:43;18.60;77.40
46754;DHT22;32500;50.620;3.400;2024-02-16T11:40:11;18.60;77.50
46754;DHT22;32500;50.620;3.400;2024-02-16T11:42:37;18.60;77.80
46754;DHT22;32500;50.620;3.400;2024-02-16T11:45:03;18.60;78.10
46754;DHT22;32500;50.620;3.400;2024-02-16T11:47:29;18.60;77.90
46754;DHT22;32500;50.620;3.400;2024-02-16T11:50:05;18.50;78.50
46754;DHT22;32500;50.620;3.400;2024-02-16T11:52:32;18.70;80.50
46754;DHT22;32500;50.620;3.400;2024-02-16T11:54:58;18.70;80.10
46754;DHT22;32500;50.620;3.400;2024-02-16T11:57:27;18.80;81.00
46754;DHT22;32500;50.620;3.400;2024-02-16T11:59:53;18.70;80.60
46754;DHT22;32500;50.620;3.400;2024-02-16T12:02:20;18.80;81.20
46754;DHT22;32500;50.620;3.400;2024-02-16T12:04:58;18.80;81.30
46754;DHT22;32500;50.620;3.400;2024-02-16T12:07:25;18.80;81.00
46754;DHT22;32500;50.620;3.400;2024-02-16T12:10:00;18.80;81.90
46754;DHT22;32500;50.620;3.400;2024-02-16T12:12:26;18.80;81.90
46754;DHT22;32500;50.620;3.400;2024-02-16T12:14:53;18.90;81.20
46754;DHT22;32500;50.620;3.400;2024-02-16T12:17:19;19.00;81.40
46754;DHT22;32500;50.620;3.400;2024-02-16T12:19:46;19.10;81.40
46754;DHT22;32500;50.620;3.400;2024-02-16T12:22:17;19.10;81.00
46754;DHT22;32500;50.620;3.400;2024-02-16T12:24:44;19.20;81.00
46754;DHT22;32500;50.620;3.400;2024-02-16T12:27:10;19.20;81.10
46754;DHT22;32500;50.620;3.400;2024-02-16T12:29:35;19.20;81.10
46754;DHT22;32500;50.620;3.400;2024-02-16T12:32:01;19.20;81.10
46754;DHT22;32500;50.620;3.400;2024-02-16T12:34:27;19.30;80.60
46754;DHT22;32500;50.620;3.400;2024-02-16T12:36:53;19.20;80.60
46754;DHT22;32500;50.620;3.400;2024-02-16T12:39:19;19.30;80.70
46754;DHT22;32500;50.620;3.400;2024-02-16T12:41:44;19.30;80.50
46754;DHT22;32500;50.620;3.400;2024-02-16T12:44:11;19.30;80.40
46754;DHT22;32500;50.620;3.400;2024-02-16T12:46:37;19.10;78.90
46754;DHT22;32500;50.620;3.400;2024-02-16T12:49:04;18.90;78.70
46754;DHT22;32500;50.620;3.400;2024-02-16T12:51:30;18.90;79.50
46754;DHT22;32500;50.620;3.400;2024-02-16T12:53:55;18.90;79.40
46754;DHT22;32500;50.620;3.400;2024-02-16T12:56:21;18.80;79.00
46754;DHT22;32500;50.620;3.400;2024-02-16T12:58:47;18.80;78.40
46754;DHT22;32500;50.620;3.400;2024-02-16T13:01:13;18.80;77.90
46754;DHT22;32500;50.620;3.400;2024-02-16T13:03:39;18.80;77.50
46754;DHT22;32500;50.620;3.400;2024-02-16T13:06:05;18.80;76.90
46754;DHT22;32500;50.620;3.400;2024-02-16T13:08:31;18.80;77.50
46754;DHT22;32500;50.620;3.400;2024-02-16T13:10:57;18.70;76.80
46754;DHT22;32500;50.620;3.400;2024-02-16T13:13:23;18.80;77.60
46754;DHT22;32500;50.620;3.400;2024-02-16T13:15:49;19.00;77.30
46754;DHT22;32500;50.620;3.400;2024-02-16T13:18:15;19.00;77.70
46754;DHT22;32500;50.620;3.400;2024-02-16T13:20:41;19.00;77.80
46754;DHT22;32500;50.620;3.400;2024-02-16T13:23:09;19.00;77.70
46754;DHT22;32500;50.620;3.400;2024-02-16T13:25:36;18.90;77.90
46754;DHT22;32500;50.620;3.400;2024-02-16T13:28:02;18.90;77.90
46754;DHT22;32500;50.620;3.400;2024-02-16T13:30:28;18.90;77.90
46754;DHT22;32500;50.620;3.400;2024-02-16T13:32:54;18.90;78.00
46754;DHT22;32500;50.620;3.400;2024-02-16T13:35:20;18.90;78.00
46754;DHT22;32500;50.620;3.400;2024-02-16T13:37:45;18.80;78.00
46754;DHT22;32500;50.620;3.400;2024-02-16T13:40:11;18.90;78.00
46754;DHT22;32500;50.620;3.400;2024-02-16T13:42:41;18.90;78.00
46754;DHT22;32500;50.620;3.400;2024-02-16T13:45:07;18.90;77.90
46754;DHT22;32500;50.620;3.400;2024-02-16T13:47:33;18.80;77.90
46754;DHT22;32500;50.620;3.400;2024-02-16T13:49:59;18.80;77.90
46754;DHT22;32500;50.620;3.400;2024-02-16T13:52:26;18.80;78.00
46754;DHT22;32500;50.620;3.400;2024-02-16T13:54:52;18.80;78.00
46754;DHT22;32500;50.620;3.400;2024-02-16T13:57:18;18.80;77.90
46754;DHT22;32500;50.620;3.400;2024-02-16T13:59:45;18.80;77.80
46754;DHT22;32500;50.620;3.400;2024-02-16T14:02:11;18.80;77.70
46754;DHT22;32500;50.620;3.400;2024-02-16T14:04:37;18.80;77.50
46754;DHT22;32500;50.620;3.400;2024-02-16T14:07:03;18.80;77.50
46754;DHT22;32500;50.620;3.400;2024-02-16T14:09:28;18.80;77.40
46754;DHT22;32500;50.620;3.400;2024-02-16T14:11:54;18.80;77.20
46754;DHT22;32500;50.620;3.400;2024-02-16T14:14:21;18.80;77.10
46754;DHT22;32500;50.620;3.400;2024-02-16T14:16:47;18.80;77.10
46754;DHT22;32500;50.620;3.400;2024-02-16T14:19:13;18.90;77.20
46754;DHT22;32500;50.620;3.400;2024-02-16T14:21:39;18.90;77.40
46754;DHT22;32500;50.620;3.400;2024-02-16T14:24:04;18.90;77.30
46754;DHT22;32500;50.620;3.400;2024-02-16T14:26:30;19.00;77.30
46754;DHT22;32500;50.620;3.400;2024-02-16T14:28:56;19.00;77.30
46754;DHT22;32500;50.620;3.400;2024-02-16T14:31:22;19.00;77.20
46754;DHT22;32500;50.620;3.400;2024-02-16T14:33:48;19.00;77.20
46754;DHT22;32500;50.620;3.400;2024-02-16T14:36:14;19.10;77.20
46754;DHT22;32500;50.620;3.400;2024-02-16T14:38:40;19.10;77.00
46754;DHT22;32500;50.620;3.400;2024-02-16T14:41:06;19.10;76.80
46754;DHT22;32500;50.620;3.400;2024-02-16T14:43:32;19.10;76.80
46754;DHT22;32500;50.620;3.400;2024-02-16T14:45:59;19.10;76.80
46754;DHT22;32500;50.620;3.400;2024-02-16T14:48:24;19.10;76.50
46754;DHT22;32500;50.620;3.400;2024-02-16T14:50:51;19.10;76.50
46754;DHT22;32500;50.620;3.400;2024-02-16T14:53:19;19.10;76.30
46754;DHT22;32500;50.620;3.400;2024-02-16T14:55:46;19.00;76.40
46754;DHT22;32500;50.620;3.400;2024-02-16T14:58:12;19.00;76.30
46754;DHT22;32500;50.620;3.400;2024-02-16T15:00:38;19.10;76.30
46754;DHT22;32500;50.620;3.400;2024-02-16T15:03:04;19.10;76.30
46754;DHT22;32500;50.620;3.400;2024-02-16T15:05:30;19.10;76.20
46754;DHT22;32500;50.620;3.400;2024-02-16T15:07:56;19.10;76.20
46754;DHT22;32500;50.620;3.400;2024-02-16T15:10:21;19.10;76.20
46754;DHT22;32500;50.620;3.400;2024-02-16T15:12:47;19.10;76.20
46754;DHT22;32500;50.620;3.400;2024-02-16T15:15:13;19.10;76.20
46754;DHT22;32500;50.620;3.400;2024-02-16T15:17:39;19.10;76.00
46754;DHT22;32500;50.620;3.400;2024-02-16T15:20:06;19.20;76.10
46754;DHT22;32500;50.620;3.400;2024-02-16T15:22:32;19.20;76.10
46754;DHT22;32500;50.620;3.400;2024-02-16T15:24:58;19.20;76.10
46754;DHT22;32500;50.620;3.400;2024-02-16T15:27:24;19.20;76.00